sensor_id;sensor_type;location;lat;lon;timestamp;P1;durP1;ratioP1;P2;durP2;ratioP2
4943;SDS011;2487;52.224;11.006;2022-08-21T00:01:02;0.40;;;0.40;;
4943;SDS011;2487;52.224;11.006;2022-08-21T00:03:31;0.30;;;0.30;;
4943;SDS011;2487;52.224;11.006;2022-08-21T00:05:57;0.40;;;0.40;;
4943;SDS011;2487;52.224;11.006;2022-08-21T00:08:23;0.40;;;0.40;;
4943;SDS011;2487;52.224;11.006;2022-08-21T00:10:51;0.40;;;0.40;;
4943;SDS011;2487;52.224;11.006;2022-08-21T00:13:17;0.40;;;0.40;;
4943;SDS011;2487;52.224;11.006;2022-08-21T00:15:44;0.33;;;0.33;;
4943;SDS011;2487;52.224;11.006;2022-08-21T00:18:11;0.30;;;0.30;;
4943;SDS011;2487;52.224;11.006;2022-08-21T00:20:37;0.30;;;0.30;;
4943;SDS011;2487;52.224;11.006;2022-08-21T00:23:05;0.30;;;0.30;;
4943;SDS011;2487;52.224;11.006;2022-08-21T00:25:31;0.30;;;0.30;;
4943;SDS011;2487;52.224;11.006;2022-08-21T00:27:56;0.30;;;0.30;;
4943;SDS011;2487;52.224;11.006;2022-08-21T00:30:23;0.40;;;0.40;;
4943;SDS011;2487;52.224;11.006;2022-08-21T00:32:51;0.30;;;0.30;;
4943;SDS011;2487;52.224;11.006;2022-08-21T00:35:20;0.40;;;0.40;;
4943;SDS011;2487;52.224;11.006;2022-08-21T00:37:48;0.30;;;0.30;;
4943;SDS011;2487;52.224;11.006;2022-08-21T00:40:15;0.30;;;0.30;;
4943;SDS011;2487;52.224;11.006;2022-08-21T00:42:49;0.33;;;0.33;;
4943;SDS011;2487;52.224;11.006;2022-08-21T00:45:15;0.30;;;0.30;;
4943;SDS011;2487;52.224;11.006;2022-08-21T00:47:41;0.40;;;0.40;;
4943;SDS011;2487;52.224;11.006;2022-08-21T00:50:07;0.40;;;0.40;;
4943;SDS011;2487;52.224;11.006;2022-08-21T00:52:34;0.40;;;0.40;;
4943;SDS011;2487;52.224;11.006;2022-08-21T00:55:03;0.40;;;0.40;;
4943;SDS011;2487;52.224;11.006;2022-08-21T00:57:34;0.30;;;0.30;;
4943;SDS011;2487;52.224;11.006;2022-08-21T01:00:06;0.30;;;0.30;;
4943;SDS011;2487;52.224;11.006;2022-08-21T01:02:34;0.30;;;0.30;;
4943;SDS011;2487;52.224;11.006;2022-08-21T01:05:00;0.30;;;0.30;;
4943;SDS011;2487;52.224;11.006;2022-08-21T01:07:25;0.30;;;0.30;;
4943;SDS011;2487;52.224;11.006;2022-08-21T01:09:51;0.30;;;0.30;;
4943;SDS011;2487;52.224;11.006;2022-08-21T01:12:17;0.30;;;0.30;;
4943;SDS011;2487;52.224;11.006;2022-08-21T01:14:43;0.30;;;0.30;;
4943;SDS011;2487;52.224;11.006;2022-08-21T01:17:11;0.30;;;0.30;;
4943;SDS011;2487;52.224;11.006;2022-08-21T01:19:39;0.30;;;0.30;;
4943;SDS011;2487;52.224;11.006;2022-08-21T01:22:05;0.40;;;0.40;;
4943;SDS011;2487;52.224;11.006;2022-08-21T01:24:51;0.30;;;0.30;;
4943;SDS011;2487;52.224;11.006;2022-08-21T01:27:17;0.40;;;0.40;;
4943;SDS011;2487;52.224;11.006;2022-08-21T01:29:56;0.37;;;0.37;;
4943;SDS011;2487;52.224;11.006;2022-08-21T01:32:26;0.30;;;0.30;;
4943;SDS011;2487;52.224;11.006;2022-08-21T01:34:52;0.30;;;0.30;;
4943;SDS011;2487;52.224;11.006;2022-08-21T01:37:19;0.30;;;0.30;;
4943;SDS011;2487;52.224;11.006;2022-08-21T01:39:46;0.30;;;0.30;;
4943;SDS011;2487;52.224;11.006;2022-08-21T01:42:12;0.30;;;0.30;;
4943;SDS011;2487;52.224;11.006;2022-08-21T01:44:39;0.30;;;0.30;;
4943;SDS011;2487;52.224;11.006;2022-08-21T01:47:07;0.30;;;0.30;;
4943;SDS011;2487;52.224;11.006;2022-08-21T01:49:34;0.30;;;0.30;;
4943;SDS011;2487;52.224;11.006;2022-08-21T01:52:01;0.30;;;0.30;;
4943;SDS011;2487;52.224;11.006;2022-08-21T01:54:28;0.30;;;0.30;;
4943;SDS011;2487;52.224;11.006;2022-08-21T01:56:54;0.30;;;0.30;;
4943;SDS011;2487;52.224;11.006;2022-08-21T01:59:20;0.40;;;0.40;;
4943;SDS011;2487;52.224;11.006;2022-08-21T02:01:48;0.30;;;0.30;;
4943;SDS011;2487;52.224;11.006;2022-08-21T02:04:14;0.30;;;0.30;;
4943;SDS011;2487;52.224;11.006;2022-08-21T02:06:40;0.30;;;0.30;;
4943;SDS011;2487;52.224;11.006;2022-08-21T02:09:07;0.40;;;0.40;;
4943;SDS011;2487;52.224;11.006;2022-08-21T02:11:34;0.40;;;0.40;;
4943;SDS011;2487;52.224;11.006;2022-08-21T02:14:01;0.30;;;0.30;;
4943;SDS011;2487;52.224;11.006;2022-08-21T02:16:28;0.30;;;0.30;;
4943;SDS011;2487;52.224;11.006;2022-08-21T02:18:53;0.30;;;0.30;;
4943;SDS011;2487;52.224;11.006;2022-08-21T02:21:19;0.30;;;0.30;;
4943;SDS011;2487;52.224;11.006;2022-08-21T02:23:45;0.30;;;0.30;;
4943;SDS011;2487;52.224;11.006;2022-08-21T02:26:11;0.40;;;0.40;;
4943;SDS011;2487;52.224;11.006;2022-08-21T02:28:38;0.50;;;0.50;;
4943;SDS011;2487;52.224;11.006;2022-08-21T02:31:04;0.50;;;0.50;;
4943;SDS011;2487;52.224;11.006;2022-08-21T02:33:31;0.50;;;0.50;;
4943;SDS011;2487;52.224;11.006;2022-08-21T02:35:59;0.50;;;0.50;;
4943;SDS011;2487;52.224;11.006;2022-08-21T02:38:26;0.50;;;0.50;;
4943;SDS011;2487;52.224;11.006;2022-08-21T02:40:59;0.70;;;0.70;;
4943;SDS011;2487;52.224;11.006;2022-08-21T02:43:26;7.70;;;0.90;;
4943;SDS011;2487;52.224;11.006;2022-08-21T02:45:53;0.50;;;0.50;;
4943;SDS011;2487;52.224;11.006;2022-08-21T02:48:22;0.50;;;0.50;;
4943;SDS011;2487;52.224;11.006;2022-08-21T02:50:55;0.83;;;0.60;;
4943;SDS011;2487;52.224;11.006;2022-08-21T02:53:23;0.57;;;0.57;;
4943;SDS011;2487;52.224;11.006;2022-08-21T02:55:49;0.30;;;0.30;;
4943;SDS011;2487;52.224;11.006;2022-08-21T02:58:16;0.60;;;0.60;;
4943;SDS011;2487;52.224;11.006;2022-08-21T03:00:45;0.50;;;0.50;;
4943;SDS011;2487;52.224;11.006;2022-08-21T03:03:11;0.50;;;0.50;;
4943;SDS011;2487;52.224;11.006;2022-08-21T03:05:38;1.50;;;0.70;;
4943;SDS011;2487;52.224;11.006;2022-08-21T03:08:05;0.60;;;0.60;;
4943;SDS011;2487;52.224;11.006;2022-08-21T03:10:37;0.60;;;0.60;;
4943;SDS011;2487;52.224;11.006;2022-08-21T03:13:05;0.70;;;0.70;;
4943;SDS011;2487;52.224;11.006;2022-08-21T03:15:31;0.40;;;0.40;;
4943;SDS011;2487;52.224;11.006;2022-08-21T03:17:58;0.70;;;0.70;;
4943;SDS011;2487;52.224;11.006;2022-08-21T03:20:25;0.70;;;0.70;;
4943;SDS011;2487;52.224;11.006;2022-08-21T03:22:53;6.10;;;0.90;;
4943;SDS011;2487;52.224;11.006;2022-08-21T03:25:21;5.20;;;0.80;;
4943;SDS011;2487;52.224;11.006;2022-08-21T03:27:47;4.90;;;0.80;;
4943;SDS011;2487;52.224;11.006;2022-08-21T03:30:15;8.10;;;0.90;;
4943;SDS011;2487;52.224;11.006;2022-08-21T03:32:41;10.07;;;0.90;;
4943;SDS011;2487;52.224;11.006;2022-08-21T03:35:07;8.63;;;1.50;;
4943;SDS011;2487;52.224;11.006;2022-08-21T03:37:34;10.50;;;0.90;;
4943;SDS011;2487;52.224;11.006;2022-08-21T03:40:02;10.30;;;0.90;;
4943;SDS011;2487;52.224;11.006;2022-08-21T03:42:30;9.57;;;0.90;;
4943;SDS011;2487;52.224;11.006;2022-08-21T03:44:55;8.20;;;0.90;;
4943;SDS011;2487;52.224;11.006;2022-08-21T03:47:21;7.37;;;0.90;;
4943;SDS011;2487;52.224;11.006;2022-08-21T03:49:47;7.43;;;0.90;;
4943;SDS011;2487;52.224;11.006;2022-08-21T03:52:13;7.40;;;0.83;;
4943;SDS011;2487;52.224;11.006;2022-08-21T03:54:39;6.53;;;0.80;;
4943;SDS011;2487;52.224;11.006;2022-08-21T03:57:06;5.97;;;0.90;;
4943;SDS011;2487;52.224;11.006;2022-08-21T03:59:32;1.60;;;0.70;;
4943;SDS011;2487;52.224;11.006;2022-08-21T04:01:59;1.10;;;0.70;;
4943;SDS011;2487;52.224;11.006;2022-08-21T04:04:27;1.00;;;0.70;;
4943;SDS011;2487;52.224;11.006;2022-08-21T04:06:54;1.00;;;0.70;;
4943;SDS011;2487;52.224;11.006;2022-08-21T04:09:24;1.00;;;0.70;;
4943;SDS011;2487;52.224;11.006;2022-08-21T04:11:50;1.80;;;0.70;;
4943;SDS011;2487;52.224;11.006;2022-08-21T04:14:16;25.03;;;1.30;;
4943;SDS011;2487;52.224;11.006;2022-08-21T04:16:43;0.60;;;0.60;;
4943;SDS011;2487;52.224;11.006;2022-08-21T04:19:10;0.60;;;0.60;;
4943;SDS011;2487;52.224;11.006;2022-08-21T04:21:40;0.60;;;0.60;;
4943;SDS011;2487;52.224;11.006;2022-08-21T04:24:06;0.50;;;0.50;;
4943;SDS011;2487;52.224;11.006;2022-08-21T04:26:35;0.50;;;0.50;;
4943;SDS011;2487;52.224;11.006;2022-08-21T04:29:02;0.50;;;0.50;;
4943;SDS011;2487;52.224;11.006;2022-08-21T04:31:33;0.50;;;0.50;;
4943;SDS011;2487;52.224;11.006;2022-08-21T04:34:00;0.50;;;0.50;;
4943;SDS011;2487;52.224;11.006;2022-08-21T04:36:26;0.50;;;0.50;;
4943;SDS011;2487;52.224;11.006;2022-08-21T04:38:51;0.50;;;0.50;;
4943;SDS011;2487;52.224;11.006;2022-08-21T04:41:17;0.50;;;0.50;;
4943;SDS011;2487;52.224;11.006;2022-08-21T04:43:43;0.50;;;0.50;;
4943;SDS011;2487;52.224;11.006;2022-08-21T04:46:09;0.50;;;0.50;;
4943;SDS011;2487;52.224;11.006;2022-08-21T04:48:35;0.50;;;0.50;;
4943;SDS011;2487;52.224;11.006;2022-08-21T04:53:50;0.50;;;0.50;;
4943;SDS011;2487;52.224;11.006;2022-08-21T04:57:04;0.50;;;0.50;;
4943;SDS011;2487;52.224;11.006;2022-08-21T04:59:15;0.50;;;0.50;;
4943;SDS011;2487;52.224;11.006;2022-08-21T05:01:44;0.50;;;0.50;;
4943;SDS011;2487;52.224;11.006;2022-08-21T05:04:11;0.50;;;0.50;;
4943;SDS011;2487;52.224;11.006;2022-08-21T05:06:40;0.53;;;0.53;;
4943;SDS011;2487;52.224;11.006;2022-08-21T05:09:09;0.57;;;0.57;;
4943;SDS011;2487;52.224;11.006;2022-08-21T05:11:39;0.60;;;0.60;;
4943;SDS011;2487;52.224;11.006;2022-08-21T05:14:06;0.60;;;0.60;;
4943;SDS011;2487;52.224;11.006;2022-08-21T05:16:31;0.60;;;0.60;;
4943;SDS011;2487;52.224;11.006;2022-08-21T05:18:57;0.60;;;0.60;;
4943;SDS011;2487;52.224;11.006;2022-08-21T05:21:23;0.50;;;0.50;;
4943;SDS011;2487;52.224;11.006;2022-08-21T05:23:49;0.50;;;0.50;;
4943;SDS011;2487;52.224;11.006;2022-08-21T05:26:15;0.60;;;0.60;;
4943;SDS011;2487;52.224;11.006;2022-08-21T05:28:40;0.60;;;0.60;;
4943;SDS011;2487;52.224;11.006;2022-08-21T05:31:06;0.60;;;0.60;;
4943;SDS011;2487;52.224;11.006;2022-08-21T05:33:32;0.60;;;0.60;;
4943;SDS011;2487;52.224;11.006;2022-08-21T05:35:58;1.60;;;0.70;;
4943;SDS011;2487;52.224;11.006;2022-08-21T05:38:24;1.80;;;0.70;;
4943;SDS011;2487;52.224;11.006;2022-08-21T05:40:51;1.80;;;0.70;;
4943;SDS011;2487;52.224;11.006;2022-08-21T05:43:16;2.00;;;0.70;;
4943;SDS011;2487;52.224;11.006;2022-08-21T05:45:42;1.70;;;0.70;;
4943;SDS011;2487;52.224;11.006;2022-08-21T05:48:08;1.80;;;0.70;;
4943;SDS011;2487;52.224;11.006;2022-08-21T05:50:35;2.07;;;0.70;;
4943;SDS011;2487;52.224;11.006;2022-08-21T05:53:02;2.40;;;0.73;;
4943;SDS011;2487;52.224;11.006;2022-08-21T05:55:31;2.70;;;0.80;;
4943;SDS011;2487;52.224;11.006;2022-08-21T05:57:58;2.90;;;0.77;;
4943;SDS011;2487;52.224;11.006;2022-08-21T06:00:24;3.00;;;0.80;;
4943;SDS011;2487;52.224;11.006;2022-08-21T06:02:50;3.47;;;0.70;;
4943;SDS011;2487;52.224;11.006;2022-08-21T06:05:17;3.60;;;0.80;;
4943;SDS011;2487;52.224;11.006;2022-08-21T06:07:43;3.60;;;0.80;;
4943;SDS011;2487;52.224;11.006;2022-08-21T06:10:08;3.30;;;0.80;;
4943;SDS011;2487;52.224;11.006;2022-08-21T06:12:35;3.30;;;0.80;;
4943;SDS011;2487;52.224;11.006;2022-08-21T06:15:01;3.57;;;0.80;;
4943;SDS011;2487;52.224;11.006;2022-08-21T06:17:26;6.90;;;0.90;;
4943;SDS011;2487;52.224;11.006;2022-08-21T06:19:53;6.60;;;0.90;;
4943;SDS011;2487;52.224;11.006;2022-08-21T06:22:19;6.00;;;0.80;;
4943;SDS011;2487;52.224;11.006;2022-08-21T06:24:48;6.67;;;0.80;;
4943;SDS011;2487;52.224;11.006;2022-08-21T06:27:14;5.97;;;0.90;;
4943;SDS011;2487;52.224;11.006;2022-08-21T06:29:40;5.80;;;0.90;;
4943;SDS011;2487;52.224;11.006;2022-08-21T06:32:06;5.70;;;0.80;;
4943;SDS011;2487;52.224;11.006;2022-08-21T06:34:36;2.50;;;0.70;;
4943;SDS011;2487;52.224;11.006;2022-08-21T06:37:03;2.87;;;0.77;;
4943;SDS011;2487;52.224;11.006;2022-08-21T06:39:29;2.70;;;0.80;;
4943;SDS011;2487;52.224;11.006;2022-08-21T06:41:55;2.50;;;0.80;;
4943;SDS011;2487;52.224;11.006;2022-08-21T06:44:27;2.70;;;0.70;;
4943;SDS011;2487;52.224;11.006;2022-08-21T06:46:53;2.73;;;0.80;;
4943;SDS011;2487;52.224;11.006;2022-08-21T06:49:18;2.93;;;0.70;;
4943;SDS011;2487;52.224;11.006;2022-08-21T06:51:44;2.40;;;0.70;;
4943;SDS011;2487;52.224;11.006;2022-08-21T06:54:10;2.10;;;0.70;;
4943;SDS011;2487;52.224;11.006;2022-08-21T06:56:35;2.10;;;0.80;;
4943;SDS011;2487;52.224;11.006;2022-08-21T06:59:03;2.40;;;0.70;;
4943;SDS011;2487;52.224;11.006;2022-08-21T07:01:30;5.40;;;0.80;;
4943;SDS011;2487;52.224;11.006;2022-08-21T07:03:56;2.00;;;0.70;;
4943;SDS011;2487;52.224;11.006;2022-08-21T07:06:22;1.40;;;0.70;;
4943;SDS011;2487;52.224;11.006;2022-08-21T07:08:47;1.00;;;0.70;;
4943;SDS011;2487;52.224;11.006;2022-08-21T07:11:23;1.00;;;0.70;;
4943;SDS011;2487;52.224;11.006;2022-08-21T07:13:49;1.00;;;0.70;;
4943;SDS011;2487;52.224;11.006;2022-08-21T07:16:18;1.00;;;0.70;;
4943;SDS011;2487;52.224;11.006;2022-08-21T07:18:44;0.50;;;0.50;;
4943;SDS011;2487;52.224;11.006;2022-08-21T07:21:10;0.40;;;0.40;;
4943;SDS011;2487;52.224;11.006;2022-08-21T07:23:40;0.40;;;0.40;;
4943;SDS011;2487;52.224;11.006;2022-08-21T07:26:08;0.50;;;0.50;;
4943;SDS011;2487;52.224;11.006;2022-08-21T07:28:35;0.50;;;0.50;;
4943;SDS011;2487;52.224;11.006;2022-08-21T07:31:01;0.60;;;0.60;;
4943;SDS011;2487;52.224;11.006;2022-08-21T07:33:29;3.67;;;0.80;;
4943;SDS011;2487;52.224;11.006;2022-08-21T07:35:55;2.80;;;0.80;;
4943;SDS011;2487;52.224;11.006;2022-08-21T07:38:22;2.80;;;0.70;;
4943;SDS011;2487;52.224;11.006;2022-08-21T07:40:48;3.20;;;0.80;;
4943;SDS011;2487;52.224;11.006;2022-08-21T07:43:16;4.07;;;0.80;;
4943;SDS011;2487;52.224;11.006;2022-08-21T07:45:43;3.23;;;0.80;;
4943;SDS011;2487;52.224;11.006;2022-08-21T07:48:10;5.57;;;0.80;;
4943;SDS011;2487;52.224;11.006;2022-08-21T07:50:35;5.93;;;0.80;;
4943;SDS011;2487;52.224;11.006;2022-08-21T07:53:02;8.67;;;0.87;;
4943;SDS011;2487;52.224;11.006;2022-08-21T07:55:28;15.77;;;0.90;;
4943;SDS011;2487;52.224;11.006;2022-08-21T07:57:53;0.50;;;0.50;;
4943;SDS011;2487;52.224;11.006;2022-08-21T08:00:26;0.50;;;0.50;;
4943;SDS011;2487;52.224;11.006;2022-08-21T08:02:54;0.60;;;0.60;;
4943;SDS011;2487;52.224;11.006;2022-08-21T08:05:25;13.43;;;1.10;;
4943;SDS011;2487;52.224;11.006;2022-08-21T08:07:53;19.23;;;1.00;;
4943;SDS011;2487;52.224;11.006;2022-08-21T08:10:19;16.00;;;0.90;;
4943;SDS011;2487;52.224;11.006;2022-08-21T08:12:46;9.30;;;0.90;;
4943;SDS011;2487;52.224;11.006;2022-08-21T08:15:15;0.40;;;0.40;;
4943;SDS011;2487;52.224;11.006;2022-08-21T08:17:42;1.13;;;0.70;;
4943;SDS011;2487;52.224;11.006;2022-08-21T08:20:09;0.40;;;0.40;;
4943;SDS011;2487;52.224;11.006;2022-08-21T08:22:36;7.27;;;0.90;;
4943;SDS011;2487;52.224;11.006;2022-08-21T08:25:04;0.90;;;0.70;;
4943;SDS011;2487;52.224;11.006;2022-08-21T08:27:31;0.73;;;0.70;;
4943;SDS011;2487;52.224;11.006;2022-08-21T08:29:57;0.67;;;0.60;;
4943;SDS011;2487;52.224;11.006;2022-08-21T08:32:23;0.60;;;0.60;;
4943;SDS011;2487;52.224;11.006;2022-08-21T08:34:49;0.60;;;0.60;;
4943;SDS011;2487;52.224;11.006;2022-08-21T08:37:17;0.70;;;0.60;;
4943;SDS011;2487;52.224;11.006;2022-08-21T08:39:44;0.70;;;0.60;;
4943;SDS011;2487;52.224;11.006;2022-08-21T08:44:45;0.60;;;0.60;;
4943;SDS011;2487;52.224;11.006;2022-08-21T08:47:12;0.60;;;0.60;;
4943;SDS011;2487;52.224;11.006;2022-08-21T08:52:23;0.70;;;0.70;;
4943;SDS011;2487;52.224;11.006;2022-08-21T08:55:16;0.87;;;0.70;;
4943;SDS011;2487;52.224;11.006;2022-08-21T08:57:45;0.70;;;0.60;;
4943;SDS011;2487;52.224;11.006;2022-08-21T09:00:14;0.80;;;0.70;;
4943;SDS011;2487;52.224;11.006;2022-08-21T09:02:42;0.40;;;0.40;;
4943;SDS011;2487;52.224;11.006;2022-08-21T09:05:09;18.67;;;0.93;;
4943;SDS011;2487;52.224;11.006;2022-08-21T09:07:53;21.00;;;1.00;;
4943;SDS011;2487;52.224;11.006;2022-08-21T09:13:20;14.97;;;0.90;;
4943;SDS011;2487;52.224;11.006;2022-08-21T09:16:04;13.33;;;0.90;;
4943;SDS011;2487;52.224;11.006;2022-08-21T09:19:07;10.07;;;0.90;;
4943;SDS011;2487;52.224;11.006;2022-08-21T09:27:24;4.83;;;0.80;;
4943;SDS011;2487;52.224;11.006;2022-08-21T09:29:50;6.17;;;0.83;;
4943;SDS011;2487;52.224;11.006;2022-08-21T09:32:26;0.60;;;0.60;;
4943;SDS011;2487;52.224;11.006;2022-08-21T09:35:47;2.70;;;0.80;;
4943;SDS011;2487;52.224;11.006;2022-08-21T09:42:58;2.63;;;0.70;;
4943;SDS011;2487;52.224;11.006;2022-08-21T09:45:27;1.20;;;0.70;;
4943;SDS011;2487;52.224;11.006;2022-08-21T09:47:53;2.07;;;0.70;;
4943;SDS011;2487;52.224;11.006;2022-08-21T09:50:23;1.97;;;0.70;;
4943;SDS011;2487;52.224;11.006;2022-08-21T09:52:56;2.60;;;0.70;;
4943;SDS011;2487;52.224;11.006;2022-08-21T09:55:31;0.50;;;0.50;;
4943;SDS011;2487;52.224;11.006;2022-08-21T09:58:18;0.50;;;0.50;;
4943;SDS011;2487;52.224;11.006;2022-08-21T10:00:56;0.50;;;0.50;;
4943;SDS011;2487;52.224;11.006;2022-08-21T10:03:26;0.40;;;0.40;;
4943;SDS011;2487;52.224;11.006;2022-08-21T10:05:57;0.40;;;0.40;;
4943;SDS011;2487;52.224;11.006;2022-08-21T10:08:31;0.40;;;0.40;;
4943;SDS011;2487;52.224;11.006;2022-08-21T10:11:03;0.40;;;0.40;;
4943;SDS011;2487;52.224;11.006;2022-08-21T10:13:43;0.40;;;0.40;;
4943;SDS011;2487;52.224;11.006;2022-08-21T10:22:19;0.40;;;0.40;;
4943;SDS011;2487;52.224;11.006;2022-08-21T10:24:56;0.50;;;0.50;;
4943;SDS011;2487;52.224;11.006;2022-08-21T10:30:04;0.60;;;0.60;;
4943;SDS011;2487;52.224;11.006;2022-08-21T10:35:29;0.50;;;0.50;;
4943;SDS011;2487;52.224;11.006;2022-08-21T10:41:42;0.40;;;0.40;;
4943;SDS011;2487;52.224;11.006;2022-08-21T10:44:02;0.50;;;0.50;;
4943;SDS011;2487;52.224;11.006;2022-08-21T11:00:29;8.83;;;0.90;;
4943;SDS011;2487;52.224;11.006;2022-08-21T11:03:05;9.90;;;0.90;;
4943;SDS011;2487;52.224;11.006;2022-08-21T11:08:14;10.17;;;0.90;;
4943;SDS011;2487;52.224;11.006;2022-08-21T11:10:46;11.67;;;1.17;;
4943;SDS011;2487;52.224;11.006;2022-08-21T11:13:19;10.87;;;0.90;;
4943;SDS011;2487;52.224;11.006;2022-08-21T11:18:50;19.30;;;1.20;;
4943;SDS011;2487;52.224;11.006;2022-08-21T11:29:33;23.27;;;1.00;;
4943;SDS011;2487;52.224;11.006;2022-08-21T11:35:01;21.20;;;1.00;;
4943;SDS011;2487;52.224;11.006;2022-08-21T11:40:44;24.10;;;1.00;;
4943;SDS011;2487;52.224;11.006;2022-08-21T11:46:07;22.13;;;1.00;;
4943;SDS011;2487;52.224;11.006;2022-08-21T11:54:39;20.60;;;1.17;;
4943;SDS011;2487;52.224;11.006;2022-08-21T12:02:51;17.80;;;0.90;;
4943;SDS011;2487;52.224;11.006;2022-08-21T12:05:32;17.63;;;1.20;;
4943;SDS011;2487;52.224;11.006;2022-08-21T12:08:12;19.20;;;1.00;;
4943;SDS011;2487;52.224;11.006;2022-08-21T12:10:59;18.40;;;0.90;;
4943;SDS011;2487;52.224;11.006;2022-08-21T12:13:31;19.70;;;0.90;;
4943;SDS011;2487;52.224;11.006;2022-08-21T12:18:39;23.80;;;1.00;;
4943;SDS011;2487;52.224;11.006;2022-08-21T12:29:25;18.90;;;0.90;;
4943;SDS011;2487;52.224;11.006;2022-08-21T12:31:59;19.23;;;0.90;;
4943;SDS011;2487;52.224;11.006;2022-08-21T12:34:44;19.50;;;0.90;;
4943;SDS011;2487;52.224;11.006;2022-08-21T12:39:58;20.60;;;1.00;;
4943;SDS011;2487;52.224;11.006;2022-08-21T12:42:31;20.57;;;1.10;;
4943;SDS011;2487;52.224;11.006;2022-08-21T12:45:00;20.70;;;1.00;;
4943;SDS011;2487;52.224;11.006;2022-08-21T12:47:34;21.23;;;1.00;;
4943;SDS011;2487;52.224;11.006;2022-08-21T12:50:14;21.30;;;1.10;;
4943;SDS011;2487;52.224;11.006;2022-08-21T12:52:48;14.77;;;0.90;;
4943;SDS011;2487;52.224;11.006;2022-08-21T12:55:24;18.40;;;0.93;;
4943;SDS011;2487;52.224;11.006;2022-08-21T12:57:52;18.63;;;0.90;;
4943;SDS011;2487;52.224;11.006;2022-08-21T13:00:20;19.70;;;1.00;;
4943;SDS011;2487;52.224;11.006;2022-08-21T13:02:49;19.80;;;0.97;;
4943;SDS011;2487;52.224;11.006;2022-08-21T13:05:19;19.90;;;0.97;;
4943;SDS011;2487;52.224;11.006;2022-08-21T13:07:52;22.10;;;0.97;;
4943;SDS011;2487;52.224;11.006;2022-08-21T13:12:58;19.17;;;0.90;;
4943;SDS011;2487;52.224;11.006;2022-08-21T13:15:34;19.67;;;1.00;;
4943;SDS011;2487;52.224;11.006;2022-08-21T13:18:03;19.83;;;1.00;;
4943;SDS011;2487;52.224;11.006;2022-08-21T13:20:37;20.90;;;1.00;;
4943;SDS011;2487;52.224;11.006;2022-08-21T13:23:46;18.97;;;0.90;;
4943;SDS011;2487;52.224;11.006;2022-08-21T13:25:54;18.00;;;0.90;;
4943;SDS011;2487;52.224;11.006;2022-08-21T13:28:21;18.70;;;0.90;;
4943;SDS011;2487;52.224;11.006;2022-08-21T13:30:48;24.80;;;1.00;;
4943;SDS011;2487;52.224;11.006;2022-08-21T13:33:17;24.50;;;1.00;;
4943;SDS011;2487;52.224;11.006;2022-08-21T13:38:30;23.40;;;1.00;;
4943;SDS011;2487;52.224;11.006;2022-08-21T13:40:59;25.90;;;1.00;;
4943;SDS011;2487;52.224;11.006;2022-08-21T13:43:30;26.10;;;1.00;;
4943;SDS011;2487;52.224;11.006;2022-08-21T13:45:57;15.70;;;1.10;;
4943;SDS011;2487;52.224;11.006;2022-08-21T13:48:25;18.10;;;1.10;;
4943;SDS011;2487;52.224;11.006;2022-08-21T13:50:54;19.30;;;1.20;;
4943;SDS011;2487;52.224;11.006;2022-08-21T13:53:43;20.07;;;1.37;;
4943;SDS011;2487;52.224;11.006;2022-08-21T13:56:22;20.00;;;1.00;;
4943;SDS011;2487;52.224;11.006;2022-08-21T13:58:56;20.47;;;1.00;;
4943;SDS011;2487;52.224;11.006;2022-08-21T14:01:25;20.60;;;0.90;;
4943;SDS011;2487;52.224;11.006;2022-08-21T14:03:54;21.77;;;1.30;;
4943;SDS011;2487;52.224;11.006;2022-08-21T14:06:25;24.57;;;1.00;;
4943;SDS011;2487;52.224;11.006;2022-08-21T14:08:57;24.90;;;1.00;;
4943;SDS011;2487;52.224;11.006;2022-08-21T14:11:33;22.57;;;1.50;;
4943;SDS011;2487;52.224;11.006;2022-08-21T14:14:05;22.30;;;1.00;;
4943;SDS011;2487;52.224;11.006;2022-08-21T14:16:46;21.80;;;0.93;;
4943;SDS011;2487;52.224;11.006;2022-08-21T14:21:47;23.47;;;1.00;;
4943;SDS011;2487;52.224;11.006;2022-08-21T14:24:14;22.30;;;0.90;;
4943;SDS011;2487;52.224;11.006;2022-08-21T14:26:53;20.80;;;0.97;;
4943;SDS011;2487;52.224;11.006;2022-08-21T14:29:22;23.50;;;1.10;;
4943;SDS011;2487;52.224;11.006;2022-08-21T14:31:54;29.40;;;1.03;;
4943;SDS011;2487;52.224;11.006;2022-08-21T14:34:22;31.00;;;1.10;;
4943;SDS011;2487;52.224;11.006;2022-08-21T14:36:50;30.73;;;1.07;;
4943;SDS011;2487;52.224;11.006;2022-08-21T14:39:16;31.10;;;1.20;;
4943;SDS011;2487;52.224;11.006;2022-08-21T14:41:42;30.70;;;1.00;;
4943;SDS011;2487;52.224;11.006;2022-08-21T14:44:09;30.20;;;1.00;;
4943;SDS011;2487;52.224;11.006;2022-08-21T14:46:36;26.47;;;1.00;;
4943;SDS011;2487;52.224;11.006;2022-08-21T14:49:02;25.17;;;1.00;;
4943;SDS011;2487;52.224;11.006;2022-08-21T14:51:29;26.00;;;1.10;;
4943;SDS011;2487;52.224;11.006;2022-08-21T14:53:55;26.90;;;1.00;;
4943;SDS011;2487;52.224;11.006;2022-08-21T14:56:20;28.67;;;2.27;;
4943;SDS011;2487;52.224;11.006;2022-08-21T14:58:48;28.47;;;1.10;;
4943;SDS011;2487;52.224;11.006;2022-08-21T15:01:17;28.23;;;1.00;;
4943;SDS011;2487;52.224;11.006;2022-08-21T15:03:46;29.00;;;1.00;;
4943;SDS011;2487;52.224;11.006;2022-08-21T15:06:13;29.30;;;1.67;;
4943;SDS011;2487;52.224;11.006;2022-08-21T15:08:41;31.47;;;1.10;;
4943;SDS011;2487;52.224;11.006;2022-08-21T15:11:07;30.00;;;1.10;;
4943;SDS011;2487;52.224;11.006;2022-08-21T15:13:36;29.03;;;1.00;;
4943;SDS011;2487;52.224;11.006;2022-08-21T15:16:02;30.73;;;1.10;;
4943;SDS011;2487;52.224;11.006;2022-08-21T15:18:29;21.67;;;1.00;;
4943;SDS011;2487;52.224;11.006;2022-08-21T15:20:55;4.40;;;0.80;;
4943;SDS011;2487;52.224;11.006;2022-08-21T15:23:22;2.70;;;0.90;;
4943;SDS011;2487;52.224;11.006;2022-08-21T15:25:48;2.50;;;0.80;;
4943;SDS011;2487;52.224;11.006;2022-08-21T15:28:15;2.57;;;0.80;;
4943;SDS011;2487;52.224;11.006;2022-08-21T15:30:42;1.07;;;0.70;;
4943;SDS011;2487;52.224;11.006;2022-08-21T15:33:09;0.60;;;0.60;;
4943;SDS011;2487;52.224;11.006;2022-08-21T15:35:35;0.60;;;0.60;;
4943;SDS011;2487;52.224;11.006;2022-08-21T15:38:02;0.60;;;0.60;;
4943;SDS011;2487;52.224;11.006;2022-08-21T15:40:28;0.60;;;0.60;;
4943;SDS011;2487;52.224;11.006;2022-08-21T15:42:58;0.60;;;0.60;;
4943;SDS011;2487;52.224;11.006;2022-08-21T15:45:26;0.60;;;0.60;;
4943;SDS011;2487;52.224;11.006;2022-08-21T15:47:52;0.60;;;0.60;;
4943;SDS011;2487;52.224;11.006;2022-08-21T15:50:19;0.70;;;0.70;;
4943;SDS011;2487;52.224;11.006;2022-08-21T15:52:45;0.60;;;0.60;;
4943;SDS011;2487;52.224;11.006;2022-08-21T15:55:12;0.70;;;0.70;;
4943;SDS011;2487;52.224;11.006;2022-08-21T15:57:42;0.60;;;0.60;;
4943;SDS011;2487;52.224;11.006;2022-08-21T16:00:13;0.60;;;0.60;;
4943;SDS011;2487;52.224;11.006;2022-08-21T16:02:43;0.60;;;0.60;;
4943;SDS011;2487;52.224;11.006;2022-08-21T16:05:12;0.60;;;0.60;;
4943;SDS011;2487;52.224;11.006;2022-08-21T16:07:41;0.60;;;0.60;;
4943;SDS011;2487;52.224;11.006;2022-08-21T16:10:08;0.60;;;0.60;;
4943;SDS011;2487;52.224;11.006;2022-08-21T16:12:36;0.60;;;0.60;;
4943;SDS011;2487;52.224;11.006;2022-08-21T16:15:06;0.70;;;0.70;;
4943;SDS011;2487;52.224;11.006;2022-08-21T16:17:35;0.60;;;0.60;;
4943;SDS011;2487;52.224;11.006;2022-08-21T16:20:03;0.70;;;0.70;;
4943;SDS011;2487;52.224;11.006;2022-08-21T16:22:32;0.60;;;0.60;;
4943;SDS011;2487;52.224;11.006;2022-08-21T16:24:58;0.60;;;0.60;;
4943;SDS011;2487;52.224;11.006;2022-08-21T16:27:23;0.60;;;0.60;;
4943;SDS011;2487;52.224;11.006;2022-08-21T16:29:49;0.60;;;0.60;;
4943;SDS011;2487;52.224;11.006;2022-08-21T16:32:15;0.60;;;0.60;;
4943;SDS011;2487;52.224;11.006;2022-08-21T16:34:46;0.60;;;0.60;;
4943;SDS011;2487;52.224;11.006;2022-08-21T16:37:14;0.70;;;0.70;;
4943;SDS011;2487;52.224;11.006;2022-08-21T16:39:40;0.70;;;0.70;;
4943;SDS011;2487;52.224;11.006;2022-08-21T16:42:07;0.60;;;0.60;;
4943;SDS011;2487;52.224;11.006;2022-08-21T16:44:37;1.13;;;1.03;;
4943;SDS011;2487;52.224;11.006;2022-08-21T16:47:03;0.60;;;0.60;;
4943;SDS011;2487;52.224;11.006;2022-08-21T16:49:29;0.60;;;0.60;;
4943;SDS011;2487;52.224;11.006;2022-08-21T16:51:56;0.60;;;0.60;;
4943;SDS011;2487;52.224;11.006;2022-08-21T16:54:22;0.60;;;0.60;;